createdAt,value
2022-10-28T00:02:11.640Z,9.10
2022-10-28T00:05:17.090Z,10.03
2022-10-28T00:08:23.597Z,8.35
2022-10-28T00:11:42.558Z,10.63
2022-10-28T00:14:49.311Z,9.55
2022-10-28T00:17:55.166Z,8.68
2022-10-28T00:21:01.645Z,10.23
2022-10-28T00:24:07.364Z,8.60
2022-10-28T00:27:12.968Z,10.05
2022-10-28T00:30:20.846Z,8.73
2022-10-28T00:33:26.998Z,9.88
2022-10-28T00:36:36.263Z,9.65
2022-10-28T00:39:41.976Z,9.78
2022-10-28T00:42:48.504Z,9.25
2022-10-28T00:45:54.673Z,8.98
2022-10-28T00:49:04.336Z,8.75
2022-10-28T00:52:24.279Z,8.70
2022-10-28T00:55:23.366Z,9.23
2022-10-28T00:58:29.866Z,8.83
2022-10-28T01:01:35.298Z,8.75
2022-10-28T01:04:43.208Z,9.85
2022-10-28T01:07:48.793Z,8.60
2022-10-28T01:11:34.526Z,10.03
2022-10-28T01:15:15.592Z,8.60
2022-10-28T01:18:34.978Z,9.05
2022-10-28T01:22:03.031Z,8.80
2022-10-28T01:25:47.250Z,8.33
2022-10-28T01:29:04.556Z,8.68
2022-10-28T01:32:20.944Z,8.50
2022-10-28T01:35:38.124Z,7.75
2022-10-28T01:39:06.123Z,6.45
2022-10-28T01:42:24.620Z,7.33
2022-10-28T01:45:40.159Z,8.10
2022-10-28T01:49:05.877Z,8.35
2022-10-28T01:52:09.589Z,7.40
2022-10-28T01:55:30.418Z,7.30
2022-10-28T01:58:40.499Z,5.87
2022-10-28T02:01:46.833Z,6.72
2022-10-28T02:04:53.164Z,5.92
2022-10-28T02:07:59.512Z,5.95
2022-10-28T02:11:40.771Z,6.08
2022-10-28T02:15:20.202Z,6.10
2022-10-28T02:18:43.174Z,5.90
2022-10-28T02:22:00.154Z,6.00
2022-10-28T02:25:25.047Z,6.22
2022-10-28T02:28:38.488Z,6.00
2022-10-28T02:31:52.131Z,5.85
2022-10-28T02:35:00.555Z,5.40
2022-10-28T02:38:07.105Z,5.95
2022-10-28T02:41:16.956Z,5.85
2022-10-28T02:47:34.323Z,6.28
2022-10-28T02:50:48.938Z,6.87
2022-10-28T02:54:21.388Z,6.60
2022-10-28T02:57:36.470Z,6.67
2022-10-28T03:00:42.025Z,6.45
2022-10-28T03:03:48.342Z,6.47
2022-10-28T03:06:57.344Z,6.05
2022-10-28T03:10:03.546Z,5.75
2022-10-28T03:13:09.867Z,6.62
2022-10-28T03:16:15.149Z,7.42
2022-10-28T03:19:14.281Z,6.72
2022-10-28T03:22:20.604Z,7.62
2022-10-28T03:25:19.278Z,7.00
2022-10-28T03:28:04.875Z,6.70
2022-10-28T03:30:57.468Z,6.72
2022-10-28T03:33:50.203Z,6.25
2022-10-28T03:36:56.011Z,7.62
2022-10-28T03:40:01.721Z,7.67
2022-10-28T03:43:07.838Z,7.28
2022-10-28T03:46:14.758Z,7.15
2022-10-28T03:49:20.978Z,7.33
2022-10-28T03:52:26.419Z,7.33
2022-10-28T03:55:34.227Z,7.53
2022-10-28T03:58:41.242Z,8.53
2022-10-28T04:01:46.869Z,7.33
2022-10-28T04:04:53.324Z,7.37
2022-10-28T04:08:00.571Z,7.83
2022-10-28T04:11:06.411Z,7.55
2022-10-28T04:14:13.471Z,7.20
2022-10-28T04:17:19.391Z,7.10
2022-10-28T04:20:25.297Z,8.45
2022-10-28T04:23:31.718Z,7.45
2022-10-28T04:26:38.259Z,8.35
2022-10-28T04:29:44.188Z,7.90
2022-10-28T04:32:49.525Z,6.92
2022-10-28T04:35:55.459Z,7.40
2022-10-28T04:39:01.752Z,8.05
2022-10-28T04:42:08.264Z,7.45
2022-10-28T04:45:13.044Z,7.83
2022-10-28T04:48:18.665Z,7.62
2022-10-28T04:51:23.475Z,7.15
2022-10-28T04:54:29.636Z,6.70
2022-10-28T04:57:34.761Z,7.87
2022-10-28T05:00:40.419Z,7.12
2022-10-28T05:03:45.783Z,7.55
2022-10-28T05:06:52.412Z,7.67
2022-10-28T05:09:52.069Z,6.53
2022-10-28T05:13:00.098Z,7.45
2022-10-28T05:16:05.892Z,7.78
2022-10-28T05:19:13.813Z,7.25
2022-10-28T05:22:20.436Z,6.53
2022-10-28T05:25:27.603Z,6.70
2022-10-28T05:28:33.510Z,6.62
2022-10-28T05:31:39.296Z,6.33
2022-10-28T05:34:45.202Z,6.65
2022-10-28T05:37:51.712Z,6.87
2022-10-28T05:40:58.761Z,6.22
2022-10-28T05:44:05.532Z,6.40
2022-10-28T05:47:11.223Z,6.25
2022-10-28T05:50:17.052Z,5.70
2022-10-28T05:53:23.100Z,6.42
2022-10-28T05:56:29.120Z,5.55
2022-10-28T05:59:34.147Z,5.65
2022-10-28T06:02:40.606Z,5.72
2022-10-28T06:05:40.170Z,5.75
2022-10-28T06:08:46.835Z,6.25
2022-10-28T06:11:50.704Z,6.20
2022-10-28T06:14:56.104Z,5.55
2022-10-28T06:18:04.787Z,5.60
2022-10-28T06:21:11.716Z,6.30
2022-10-28T06:24:17.385Z,5.95
2022-10-28T06:27:22.988Z,5.95
2022-10-28T06:30:28.685Z,5.90
2022-10-28T06:33:35.431Z,6.35
2022-10-28T06:36:40.964Z,6.72
2022-10-28T06:39:43.328Z,6.62
2022-10-28T06:42:48.306Z,6.78
2022-10-28T06:45:55.940Z,8.13
2022-10-28T06:49:04.151Z,8.75
2022-10-28T06:52:09.915Z,6.28
2022-10-28T06:55:14.780Z,6.15
2022-10-28T06:58:20.831Z,6.33
2022-10-28T07:01:26.951Z,5.37
2022-10-28T07:04:33.044Z,6.65
2022-10-28T07:07:32.303Z,5.97
2022-10-28T07:13:44.365Z,6.55
2022-10-28T07:16:50.928Z,6.67
2022-10-28T07:19:57.624Z,6.17
2022-10-28T07:23:05.758Z,7.45
2022-10-28T07:26:11.085Z,7.17
2022-10-28T07:29:17.485Z,7.03
2022-10-28T07:32:26.056Z,8.00
2022-10-28T07:35:31.860Z,6.92
2022-10-28T07:38:37.778Z,7.80
2022-10-28T07:41:43.547Z,7.53
2022-10-28T07:44:51.502Z,7.20
2022-10-28T07:47:59.017Z,6.95
2022-10-28T07:51:04.878Z,7.40
2022-10-28T07:54:11.713Z,6.53
2022-10-28T07:57:18.674Z,6.17
2022-10-28T08:00:26.023Z,6.25
2022-10-28T08:03:38.660Z,5.58
2022-10-28T08:06:40.956Z,6.65
2022-10-28T08:09:47.963Z,5.30
2022-10-28T08:12:55.533Z,5.90
2022-10-28T08:16:10.338Z,6.90
2022-10-28T08:19:17.030Z,5.87
2022-10-28T08:22:23.720Z,4.83
2022-10-28T08:25:31.309Z,5.05
2022-10-28T08:28:37.736Z,5.08
2022-10-28T08:31:45.569Z,4.67
2022-10-28T08:34:52.673Z,6.05
2022-10-28T08:37:58.170Z,4.90
2022-10-28T08:41:43.490Z,4.90
2022-10-28T08:45:20.499Z,4.03
2022-10-28T08:48:46.034Z,4.75
2022-10-28T08:52:11.428Z,3.90
2022-10-28T08:55:28.910Z,3.42
2022-10-28T08:58:44.481Z,3.67
2022-10-28T09:02:03.794Z,3.40
2022-10-28T09:05:33.849Z,3.40
2022-10-28T09:08:42.257Z,3.08
2022-10-28T09:12:22.637Z,3.37
2022-10-28T09:15:53.970Z,3.10
2022-10-28T09:19:14.096Z,3.05
2022-10-28T09:22:39.991Z,3.85
2022-10-28T09:26:15.856Z,3.08
2022-10-28T09:29:44.301Z,3.72
2022-10-28T09:33:15.067Z,3.50
2022-10-28T09:36:28.218Z,4.03
2022-10-28T09:39:45.671Z,3.75
2022-10-28T09:42:54.813Z,3.02
2022-10-28T09:46:02.099Z,3.20
2022-10-28T09:49:08.457Z,3.37
2022-10-28T09:52:40.189Z,3.30
2022-10-28T09:58:49.108Z,3.10
2022-10-28T10:01:54.841Z,2.90
2022-10-28T10:05:01.788Z,2.35
2022-10-28T10:08:17.931Z,2.22
2022-10-28T10:11:27.759Z,2.85
2022-10-28T10:14:45.807Z,3.72
2022-10-28T10:17:59.479Z,4.45
2022-10-28T10:21:07.974Z,3.98
2022-10-28T10:24:13.944Z,2.30
2022-10-28T10:27:35.458Z,2.40
2022-10-28T10:30:53.033Z,2.73
2022-10-28T10:33:59.002Z,3.62
2022-10-28T10:37:08.789Z,3.70
2022-10-28T10:40:42.460Z,5.47
2022-10-28T10:43:49.987Z,6.30
2022-10-28T10:46:56.211Z,2.80
2022-10-28T10:50:03.601Z,4.95
2022-10-28T10:53:12.408Z,5.37
2022-10-28T10:56:22.540Z,4.08
2022-10-28T11:02:55.799Z,4.15
2022-10-28T11:06:24.597Z,2.83
2022-10-28T11:09:21.231Z,4.22
2022-10-28T11:12:43.104Z,8.25
2022-10-28T11:15:50.878Z,3.17
2022-10-28T11:19:07.420Z,5.92
2022-10-28T11:22:43.428Z,4.70
2022-10-28T11:25:54.597Z,6.47
2022-10-28T11:29:23.883Z,9.45
2022-10-28T11:33:08.127Z,4.75
2022-10-28T11:36:26.420Z,5.28
2022-10-28T11:39:56.142Z,6.22
2022-10-28T11:43:22.377Z,5.58
2022-10-28T11:47:03.983Z,3.92
2022-10-28T11:50:36.857Z,4.53
2022-10-28T11:53:51.891Z,3.47
2022-10-28T11:57:02.567Z,3.80
2022-10-28T12:00:38.355Z,3.60
2022-10-28T12:04:27.480Z,5.30
2022-10-28T12:07:44.830Z,3.87
2022-10-28T12:11:29.095Z,3.27
2022-10-28T12:14:52.322Z,3.12
2022-10-28T12:18:14.097Z,4.70
2022-10-28T12:21:28.759Z,3.67
2022-10-28T12:24:36.709Z,2.98
2022-10-28T12:27:52.001Z,2.58
2022-10-28T12:30:57.067Z,3.45
2022-10-28T12:34:06.809Z,3.10
2022-10-28T12:40:39.728Z,2.58
2022-10-28T12:44:06.571Z,3.27
2022-10-28T12:47:44.290Z,3.37
2022-10-28T12:50:59.436Z,2.92
2022-10-28T12:54:26.795Z,2.10
2022-10-28T12:57:32.243Z,2.50
2022-10-28T13:00:40.862Z,2.95
2022-10-28T13:03:46.375Z,3.27
2022-10-28T13:07:23.340Z,2.77
2022-10-28T13:10:38.650Z,2.30
2022-10-28T13:14:03.709Z,2.50
2022-10-28T13:17:46.263Z,2.20
2022-10-28T13:21:23.802Z,2.77
2022-10-28T13:24:46.645Z,2.52
2022-10-28T13:27:52.553Z,2.27
2022-10-28T13:31:21.894Z,2.90
2022-10-28T13:34:29.110Z,2.87
2022-10-28T13:37:35.931Z,2.75
2022-10-28T13:40:44.794Z,4.37
2022-10-28T13:43:41.082Z,4.60
2022-10-28T13:47:11.085Z,4.45
2022-10-28T13:50:29.819Z,4.45
2022-10-28T13:54:03.809Z,5.65
2022-10-28T13:57:09.059Z,3.05
2022-10-28T14:00:19.577Z,3.17
2022-10-28T14:03:41.472Z,2.52
2022-10-28T14:06:47.776Z,2.25
2022-10-28T14:09:53.489Z,2.10
2022-10-28T14:13:02.202Z,3.27
2022-10-28T14:16:34.501Z,3.12
2022-10-28T14:19:41.112Z,2.62
2022-10-28T14:22:50.647Z,2.72
2022-10-28T14:26:06.350Z,2.45
2022-10-28T14:29:11.472Z,2.50
2022-10-28T14:32:22.066Z,2.72
2022-10-28T14:35:32.696Z,2.65
2022-10-28T14:38:55.243Z,2.95
2022-10-28T14:42:36.618Z,2.77
2022-10-28T14:46:01.116Z,2.40
2022-10-28T14:49:14.031Z,2.37
2022-10-28T14:52:32.947Z,2.80
2022-10-28T14:55:44.745Z,3.08
2022-10-28T14:58:53.370Z,5.15
2022-10-28T15:02:31.143Z,5.62
2022-10-28T15:05:37.056Z,4.97
2022-10-28T15:08:42.875Z,6.33
2022-10-28T15:11:49.181Z,4.17
2022-10-28T15:15:05.863Z,8.08
2022-10-28T15:18:12.504Z,15.10
2022-10-28T15:21:26.354Z,9.00
2022-10-28T15:24:26.619Z,6.35
2022-10-28T15:27:14.308Z,3.85
2022-10-28T15:30:06.616Z,4.70
2022-10-28T15:32:58.972Z,5.58
2022-10-28T15:36:05.019Z,9.73
2022-10-28T15:39:25.076Z,18.50
2022-10-28T15:42:58.816Z,32.05
2022-10-28T15:46:04.998Z,39.65
2022-10-28T15:49:12.813Z,55.60
2022-10-28T15:52:40.870Z,57.50
2022-10-28T15:59:00.998Z,16.90
2022-10-28T16:02:08.697Z,5.35
2022-10-28T16:05:14.167Z,3.90
2022-10-28T16:08:32.688Z,3.52
2022-10-28T16:11:38.493Z,3.37
2022-10-28T16:15:09.326Z,3.95
2022-10-28T16:18:16.692Z,3.37
2022-10-28T16:21:15.118Z,6.83
2022-10-28T16:24:21.714Z,5.37
2022-10-28T16:27:33.515Z,5.65
2022-10-28T16:30:38.926Z,17.32
2022-10-28T16:33:49.115Z,15.83
2022-10-28T16:36:54.929Z,16.02
2022-10-28T16:40:00.096Z,9.15
2022-10-28T16:43:08.686Z,5.90
2022-10-28T16:46:16.379Z,21.35
2022-10-28T16:49:21.971Z,25.27
2022-10-28T16:52:26.592Z,8.98
2022-10-28T16:55:34.765Z,5.62
2022-10-28T16:58:42.185Z,5.47
2022-10-28T17:01:48.999Z,4.58
2022-10-28T17:04:55.588Z,4.47
2022-10-28T17:08:07.329Z,4.58
2022-10-28T17:11:11.624Z,4.85
2022-10-28T17:14:18.094Z,4.62
2022-10-28T17:17:23.322Z,5.97
2022-10-28T17:20:30.837Z,6.50
2022-10-28T17:23:37.536Z,5.62
2022-10-28T17:26:44.241Z,5.78
2022-10-28T17:29:49.254Z,5.17
2022-10-28T17:32:55.928Z,4.90
2022-10-28T17:36:02.330Z,4.22
2022-10-28T17:39:10.119Z,5.12
2022-10-28T17:42:16.183Z,6.10
2022-10-28T17:45:22.768Z,5.87
2022-10-28T17:48:29.457Z,6.37
2022-10-28T17:51:37.835Z,9.18
2022-10-28T17:54:44.206Z,9.73
2022-10-28T17:57:53.081Z,17.10
2022-10-28T18:01:00.316Z,8.30
2022-10-28T18:04:06.226Z,11.63
2022-10-28T18:07:12.882Z,18.02
2022-10-28T18:10:20.317Z,8.48
2022-10-28T18:13:26.633Z,6.92
2022-10-28T18:16:34.585Z,10.10
2022-10-28T18:19:40.129Z,11.10
2022-10-28T18:22:46.686Z,14.28
2022-10-28T18:25:53.080Z,8.50
2022-10-28T18:28:59.525Z,8.83
2022-10-28T18:32:04.705Z,12.80
2022-10-28T18:35:10.546Z,12.82
2022-10-28T18:38:15.619Z,12.78
2022-10-28T18:41:33.453Z,11.48
2022-10-28T18:44:38.619Z,12.58
2022-10-28T18:47:43.848Z,10.78
2022-10-28T18:50:50.332Z,10.93
2022-10-28T18:54:02.334Z,9.38
2022-10-28T18:57:08.244Z,9.38
2022-10-28T19:00:19.156Z,9.43
2022-10-28T19:03:23.699Z,9.35
2022-10-28T19:06:30.991Z,8.13
2022-10-28T19:09:37.343Z,8.28
2022-10-28T19:12:45.984Z,8.08
2022-10-28T19:15:50.758Z,9.30
2022-10-28T19:18:58.425Z,9.88
2022-10-28T19:22:04.301Z,9.83
2022-10-28T19:25:10.241Z,8.60
2022-10-28T19:28:17.719Z,9.10
2022-10-28T19:31:26.630Z,8.25
2022-10-28T19:34:25.597Z,7.73
2022-10-28T19:37:18.232Z,6.80
2022-10-28T19:40:23.936Z,8.63
2022-10-28T19:43:30.678Z,9.45
2022-10-28T19:46:35.622Z,9.45
2022-10-28T19:49:44.278Z,9.05
2022-10-28T19:52:42.714Z,9.13
2022-10-28T19:55:49.281Z,8.43
2022-10-28T19:58:56.813Z,10.30
2022-10-28T20:02:02.729Z,7.85
2022-10-28T20:05:09.904Z,7.45
2022-10-28T20:08:16.926Z,8.28
2022-10-28T20:11:26.236Z,7.62
2022-10-28T20:14:31.417Z,7.30
2022-10-28T20:17:38.081Z,7.35
2022-10-28T20:20:44.410Z,7.28
2022-10-28T20:26:56.501Z,6.40
2022-10-28T20:30:03.628Z,6.08
2022-10-28T20:33:08.984Z,6.28
2022-10-28T20:36:14.851Z,6.28
2022-10-28T20:39:25.567Z,6.10
2022-10-28T20:42:24.564Z,6.20
2022-10-28T20:45:30.313Z,6.25
2022-10-28T20:48:37.220Z,5.80
2022-10-28T20:51:45.005Z,5.53
2022-10-28T20:54:49.699Z,6.95
2022-10-28T20:57:55.303Z,7.65
2022-10-28T21:01:00.808Z,6.78
2022-10-28T21:04:08.636Z,6.22
2022-10-28T21:07:15.527Z,6.37
2022-10-28T21:10:23.701Z,6.20
2022-10-28T21:13:32.043Z,6.22
2022-10-28T21:16:37.439Z,5.78
2022-10-28T21:19:44.857Z,9.33
2022-10-28T21:22:50.880Z,4.85
2022-10-28T21:25:51.324Z,8.28
2022-10-28T21:28:58.829Z,5.20
2022-10-28T21:32:05.245Z,4.80
2022-10-28T21:35:11.375Z,4.20
2022-10-28T21:38:18.130Z,5.20
2022-10-28T21:41:33.659Z,4.42
2022-10-28T21:44:38.502Z,4.70
2022-10-28T21:47:44.307Z,4.90
2022-10-28T21:50:49.861Z,4.58
2022-10-28T21:53:56.067Z,4.65
2022-10-28T21:56:57.901Z,4.35
2022-10-28T21:59:57.866Z,4.83
2022-10-28T22:03:05.874Z,4.70
2022-10-28T22:06:11.150Z,4.10
2022-10-28T22:09:17.538Z,4.97
2022-10-28T22:12:24.460Z,4.45
2022-10-28T22:15:30.956Z,3.87
2022-10-28T22:18:36.550Z,4.33
2022-10-28T22:21:47.982Z,4.40
2022-10-28T22:24:53.710Z,4.28
2022-10-28T22:27:59.533Z,4.08
2022-10-28T22:31:05.145Z,4.08
2022-10-28T22:34:12.997Z,4.85
2022-10-28T22:37:18.816Z,5.45
2022-10-28T22:40:25.443Z,6.03
2022-10-28T22:43:31.118Z,5.67
2022-10-28T22:46:38.188Z,4.12
2022-10-28T22:49:43.365Z,4.05
2022-10-28T22:52:49.609Z,4.37
2022-10-28T22:55:56.348Z,4.55
2022-10-28T22:59:03.861Z,4.75
2022-10-28T23:02:09.881Z,5.30
2022-10-28T23:05:15.960Z,4.78
2022-10-28T23:08:22.563Z,5.05
2022-10-28T23:11:28.150Z,4.65
2022-10-28T23:14:34.245Z,5.15
2022-10-28T23:17:39.522Z,5.35
2022-10-28T23:20:44.582Z,4.97
2022-10-28T23:23:53.942Z,5.75
2022-10-28T23:27:00.565Z,5.50
2022-10-28T23:30:05.944Z,6.50
2022-10-28T23:33:12.834Z,6.83
2022-10-28T23:36:11.793Z,6.42
2022-10-28T23:39:19.438Z,7.33
2022-10-28T23:42:26.144Z,6.35
2022-10-28T23:45:31.748Z,6.35
2022-10-28T23:48:37.741Z,6.35
2022-10-28T23:51:37.364Z,6.65
2022-10-28T23:54:44.759Z,5.95
2022-10-28T23:57:51.325Z,6.28
